메인 페이지
METAR-TAF:

METAR-TAF

공항 :

Muscle Shoals, 앨라배마, 미국

위도: 34-44-38N, 경도: 087-35-58W, 고도: 167m

현재 날씨관측

예보는 5 시간 40분 전, 02:53시(UTC)에 발표되었습니다.
북북동6kt
온도 18°C
습도 83%
기압 1012 hPa
시정: 16.1km
고도 11000ft 상공 구름 보통

METAR: KMSL 100253Z AUTO 03006KT 10SM SCT110 18/15 A2989 RMK AO2 RAE50 SLP116 P0008 60049 T01780150 53015 TSNO $

시각: 03:33 (08:33 UTC)

예보

예보는 2 시간 15분 전, 06:18시(UTC)에 발표되었습니다.
예보 대상 시간: 10일 06시부터 11일 06시까지 (UTC)
서북서7kt
시정: 10km
고도 3000ft 상공 구름 많음
고도 8000ft 상공 흐림
10일 0800시부터 (UTC)
여러 방향의 바람 4kt
시정: 10km
고도 1000ft 상공 흐림
10일 1600시부터 (UTC)
5kt
시정: 10km
고도 1500ft 상공 흐림
11일 0000시부터 (UTC)
여러 방향의 바람 4kt
시정: 10km
고도 7000ft 상공 흐림

TAF: KMSL 100618Z 1006/1106 30007KT P6SM BKN030 OVC080 FM100800 VRB04KT P6SM OVC010 FM101600 36005KT P6SM OVC015 FM110000 VRB04KT P6SM OVC070 AMD NOT SKED

4,000개 이상의 공항 관측 자료 및 예보 (METAR 및 TAF 보고).

지도상에서 검색 가능한 기상관측소가 노란 점과 빨간 점으로 표시되어 있습니다.

기상관측소 명을 보려면 표시 위로 마우스를 이동하세요.

날씨 관측과 예보를 보려면 클릭하세요.

지도 변경 : 확대하려면 엑스 표시가 있는 녹색 버튼, 축소하려면 빼기 표시가 있는 녹색 버튼, 다음 페이지의 지도를 보려면 녹색 화살표를 클릭하세요.


METAR-TAF: